sensor_id;sensor_type;location;lat;lon;timestamp;P1;durP1;ratioP1;P2;durP2;ratioP2
58528;SDS011;44322;52.968;5.816;2023-06-10T00:02:11;11.40;;;6.72;;
58528;SDS011;44322;52.968;5.816;2023-06-10T00:04:37;12.93;;;7.10;;
58528;SDS011;44322;52.968;5.816;2023-06-10T00:07:05;9.93;;;6.78;;
58528;SDS011;44322;52.968;5.816;2023-06-10T00:09:37;12.45;;;7.43;;
58528;SDS011;44322;52.968;5.816;2023-06-10T00:12:06;13.90;;;7.78;;
58528;SDS011;44322;52.968;5.816;2023-06-10T00:14:33;13.63;;;6.82;;
58528;SDS011;44322;52.968;5.816;2023-06-10T00:16:59;12.32;;;7.13;;
58528;SDS011;44322;52.968;5.816;2023-06-10T00:19:25;10.40;;;7.00;;
58528;SDS011;44322;52.968;5.816;2023-06-10T00:21:55;10.95;;;6.53;;
58528;SDS011;44322;52.968;5.816;2023-06-10T00:24:21;12.27;;;6.70;;
58528;SDS011;44322;52.968;5.816;2023-06-10T00:26:47;11.00;;;6.30;;
58528;SDS011;44322;52.968;5.816;2023-06-10T00:29:13;10.43;;;6.45;;
58528;SDS011;44322;52.968;5.816;2023-06-10T00:31:39;11.90;;;6.80;;
58528;SDS011;44322;52.968;5.816;2023-06-10T00:34:08;11.13;;;6.60;;
58528;SDS011;44322;52.968;5.816;2023-06-10T00:36:34;9.95;;;6.70;;
58528;SDS011;44322;52.968;5.816;2023-06-10T00:39:01;10.45;;;7.13;;
58528;SDS011;44322;52.968;5.816;2023-06-10T00:41:26;13.30;;;7.15;;
58528;SDS011;44322;52.968;5.816;2023-06-10T00:43:52;13.23;;;7.22;;
58528;SDS011;44322;52.968;5.816;2023-06-10T00:46:18;9.98;;;6.72;;
58528;SDS011;44322;52.968;5.816;2023-06-10T00:48:44;10.32;;;7.03;;
58528;SDS011;44322;52.968;5.816;2023-06-10T00:51:10;11.30;;;6.47;;
58528;SDS011;44322;52.968;5.816;2023-06-10T00:53:37;12.02;;;6.85;;
58528;SDS011;44322;52.968;5.816;2023-06-10T00:58:30;10.07;;;6.22;;
58528;SDS011;44322;52.968;5.816;2023-06-10T01:00:56;11.60;;;6.28;;
58528;SDS011;44322;52.968;5.816;2023-06-10T01:03:26;10.18;;;6.40;;
58528;SDS011;44322;52.968;5.816;2023-06-10T01:06:18;10.57;;;6.50;;
58528;SDS011;44322;52.968;5.816;2023-06-10T01:08:46;9.80;;;6.40;;
58528;SDS011;44322;52.968;5.816;2023-06-10T01:11:21;9.20;;;6.93;;
58528;SDS011;44322;52.968;5.816;2023-06-10T01:13:51;9.50;;;6.18;;
58528;SDS011;44322;52.968;5.816;2023-06-10T01:16:20;9.07;;;6.47;;
58528;SDS011;44322;52.968;5.816;2023-06-10T01:18:46;13.15;;;7.43;;
58528;SDS011;44322;52.968;5.816;2023-06-10T01:21:19;10.82;;;6.65;;
58528;SDS011;44322;52.968;5.816;2023-06-10T01:23:54;13.38;;;6.55;;
58528;SDS011;44322;52.968;5.816;2023-06-10T01:26:22;10.80;;;6.68;;
58528;SDS011;44322;52.968;5.816;2023-06-10T01:28:58;10.80;;;6.28;;
58528;SDS011;44322;52.968;5.816;2023-06-10T01:34:29;13.48;;;7.30;;
58528;SDS011;44322;52.968;5.816;2023-06-10T01:36:57;9.55;;;6.90;;
58528;SDS011;44322;52.968;5.816;2023-06-10T01:39:24;10.82;;;7.10;;
58528;SDS011;44322;52.968;5.816;2023-06-10T01:41:50;11.05;;;6.75;;
58528;SDS011;44322;52.968;5.816;2023-06-10T01:44:21;12.98;;;7.82;;
58528;SDS011;44322;52.968;5.816;2023-06-10T01:46:47;11.95;;;7.25;;
58528;SDS011;44322;52.968;5.816;2023-06-10T01:49:13;11.50;;;6.80;;
58528;SDS011;44322;52.968;5.816;2023-06-10T01:51:38;13.90;;;7.63;;
58528;SDS011;44322;52.968;5.816;2023-06-10T01:54:06;11.13;;;6.80;;
58528;SDS011;44322;52.968;5.816;2023-06-10T01:56:32;12.00;;;7.60;;
58528;SDS011;44322;52.968;5.816;2023-06-10T01:58:58;10.63;;;6.45;;
58528;SDS011;44322;52.968;5.816;2023-06-10T02:01:26;10.15;;;6.65;;
58528;SDS011;44322;52.968;5.816;2023-06-10T02:03:52;11.15;;;6.72;;
58528;SDS011;44322;52.968;5.816;2023-06-10T02:06:18;15.10;;;7.50;;
58528;SDS011;44322;52.968;5.816;2023-06-10T02:08:43;11.88;;;6.97;;
58528;SDS011;44322;52.968;5.816;2023-06-10T02:11:09;9.18;;;6.63;;
58528;SDS011;44322;52.968;5.816;2023-06-10T02:13:35;10.73;;;8.07;;
58528;SDS011;44322;52.968;5.816;2023-06-10T02:16:00;13.18;;;7.57;;
58528;SDS011;44322;52.968;5.816;2023-06-10T02:18:28;9.60;;;6.68;;
58528;SDS011;44322;52.968;5.816;2023-06-10T02:20:54;12.80;;;7.55;;
58528;SDS011;44322;52.968;5.816;2023-06-10T02:23:19;12.75;;;7.25;;
58528;SDS011;44322;52.968;5.816;2023-06-10T02:25:45;11.65;;;7.72;;
58528;SDS011;44322;52.968;5.816;2023-06-10T02:28:12;9.40;;;7.13;;
58528;SDS011;44322;52.968;5.816;2023-06-10T02:30:39;15.35;;;8.35;;
58528;SDS011;44322;52.968;5.816;2023-06-10T02:33:06;10.77;;;7.22;;
58528;SDS011;44322;52.968;5.816;2023-06-10T02:35:36;12.40;;;6.90;;
58528;SDS011;44322;52.968;5.816;2023-06-10T02:38:03;12.77;;;7.15;;
58528;SDS011;44322;52.968;5.816;2023-06-10T02:40:31;15.32;;;7.05;;
58528;SDS011;44322;52.968;5.816;2023-06-10T02:42:57;11.75;;;6.57;;
58528;SDS011;44322;52.968;5.816;2023-06-10T02:45:24;10.38;;;7.97;;
58528;SDS011;44322;52.968;5.816;2023-06-10T02:47:50;12.18;;;7.60;;
58528;SDS011;44322;52.968;5.816;2023-06-10T02:50:15;15.68;;;7.65;;
58528;SDS011;44322;52.968;5.816;2023-06-10T02:53:01;11.30;;;6.72;;
58528;SDS011;44322;52.968;5.816;2023-06-10T02:55:27;10.25;;;6.70;;
58528;SDS011;44322;52.968;5.816;2023-06-10T02:57:59;13.68;;;7.45;;
58528;SDS011;44322;52.968;5.816;2023-06-10T03:00:25;9.27;;;6.85;;
58528;SDS011;44322;52.968;5.816;2023-06-10T03:02:52;9.02;;;6.60;;
58528;SDS011;44322;52.968;5.816;2023-06-10T03:05:24;12.68;;;7.18;;
58528;SDS011;44322;52.968;5.816;2023-06-10T03:07:52;12.13;;;6.90;;
58528;SDS011;44322;52.968;5.816;2023-06-10T03:10:18;12.43;;;6.85;;
58528;SDS011;44322;52.968;5.816;2023-06-10T03:12:44;12.13;;;7.13;;
58528;SDS011;44322;52.968;5.816;2023-06-10T03:15:10;12.35;;;7.50;;
58528;SDS011;44322;52.968;5.816;2023-06-10T03:17:35;12.95;;;7.18;;
58528;SDS011;44322;52.968;5.816;2023-06-10T03:20:02;10.52;;;6.90;;
58528;SDS011;44322;52.968;5.816;2023-06-10T03:22:31;10.55;;;6.95;;
58528;SDS011;44322;52.968;5.816;2023-06-10T03:25:02;11.27;;;6.68;;
58528;SDS011;44322;52.968;5.816;2023-06-10T03:27:28;10.02;;;7.13;;
58528;SDS011;44322;52.968;5.816;2023-06-10T03:29:57;15.02;;;7.65;;
58528;SDS011;44322;52.968;5.816;2023-06-10T03:32:23;10.30;;;6.97;;
58528;SDS011;44322;52.968;5.816;2023-06-10T03:34:49;11.18;;;7.40;;
58528;SDS011;44322;52.968;5.816;2023-06-10T03:37:17;9.60;;;6.55;;
58528;SDS011;44322;52.968;5.816;2023-06-10T03:39:46;11.63;;;7.18;;
58528;SDS011;44322;52.968;5.816;2023-06-10T03:42:11;12.63;;;7.03;;
58528;SDS011;44322;52.968;5.816;2023-06-10T03:44:37;12.43;;;7.00;;
58528;SDS011;44322;52.968;5.816;2023-06-10T03:47:04;9.50;;;6.50;;
58528;SDS011;44322;52.968;5.816;2023-06-10T03:49:30;10.18;;;6.72;;
58528;SDS011;44322;52.968;5.816;2023-06-10T03:51:59;12.65;;;7.68;;
58528;SDS011;44322;52.968;5.816;2023-06-10T03:54:25;12.18;;;6.43;;
58528;SDS011;44322;52.968;5.816;2023-06-10T03:56:51;12.95;;;6.78;;
58528;SDS011;44322;52.968;5.816;2023-06-10T03:59:17;10.65;;;6.70;;
58528;SDS011;44322;52.968;5.816;2023-06-10T04:01:42;10.18;;;6.43;;
58528;SDS011;44322;52.968;5.816;2023-06-10T04:04:09;11.25;;;7.00;;
58528;SDS011;44322;52.968;5.816;2023-06-10T04:06:36;12.32;;;6.85;;
58528;SDS011;44322;52.968;5.816;2023-06-10T04:09:02;10.95;;;6.30;;
58528;SDS011;44322;52.968;5.816;2023-06-10T04:11:28;10.63;;;6.40;;
58528;SDS011;44322;52.968;5.816;2023-06-10T04:16:22;11.32;;;6.30;;
58528;SDS011;44322;52.968;5.816;2023-06-10T04:18:48;10.38;;;6.22;;
58528;SDS011;44322;52.968;5.816;2023-06-10T04:23:42;10.57;;;6.10;;
58528;SDS011;44322;52.968;5.816;2023-06-10T04:26:09;11.10;;;6.70;;
58528;SDS011;44322;52.968;5.816;2023-06-10T04:28:36;11.47;;;6.87;;
58528;SDS011;44322;52.968;5.816;2023-06-10T04:31:01;10.95;;;6.90;;
58528;SDS011;44322;52.968;5.816;2023-06-10T04:33:29;12.82;;;7.70;;
58528;SDS011;44322;52.968;5.816;2023-06-10T04:35:56;14.20;;;7.20;;
58528;SDS011;44322;52.968;5.816;2023-06-10T04:40:50;10.35;;;6.95;;
58528;SDS011;44322;52.968;5.816;2023-06-10T04:43:17;12.15;;;6.80;;
58528;SDS011;44322;52.968;5.816;2023-06-10T04:45:44;10.25;;;6.60;;
58528;SDS011;44322;52.968;5.816;2023-06-10T04:48:11;13.40;;;6.50;;
58528;SDS011;44322;52.968;5.816;2023-06-10T04:50:37;12.10;;;6.50;;
58528;SDS011;44322;52.968;5.816;2023-06-10T04:53:03;11.60;;;6.50;;
58528;SDS011;44322;52.968;5.816;2023-06-10T04:55:29;11.57;;;6.75;;
58528;SDS011;44322;52.968;5.816;2023-06-10T04:57:54;11.55;;;6.30;;
58528;SDS011;44322;52.968;5.816;2023-06-10T05:00:20;10.90;;;6.35;;
58528;SDS011;44322;52.968;5.816;2023-06-10T05:02:46;11.52;;;7.10;;
58528;SDS011;44322;52.968;5.816;2023-06-10T05:05:15;11.30;;;7.10;;
58528;SDS011;44322;52.968;5.816;2023-06-10T05:07:42;11.50;;;6.73;;
58528;SDS011;44322;52.968;5.816;2023-06-10T05:10:07;13.00;;;6.85;;
58528;SDS011;44322;52.968;5.816;2023-06-10T05:12:33;11.18;;;6.60;;
58528;SDS011;44322;52.968;5.816;2023-06-10T05:14:59;10.90;;;6.70;;
58528;SDS011;44322;52.968;5.816;2023-06-10T05:17:24;10.52;;;5.97;;
58528;SDS011;44322;52.968;5.816;2023-06-10T05:19:50;12.43;;;5.95;;
58528;SDS011;44322;52.968;5.816;2023-06-10T05:22:16;10.27;;;6.15;;
58528;SDS011;44322;52.968;5.816;2023-06-10T05:24:43;10.85;;;6.18;;
58528;SDS011;44322;52.968;5.816;2023-06-10T05:27:09;9.75;;;6.28;;
58528;SDS011;44322;52.968;5.816;2023-06-10T05:29:35;11.32;;;5.95;;
58528;SDS011;44322;52.968;5.816;2023-06-10T05:32:01;9.75;;;6.38;;
58528;SDS011;44322;52.968;5.816;2023-06-10T05:34:31;8.85;;;6.50;;
58528;SDS011;44322;52.968;5.816;2023-06-10T05:36:57;10.15;;;6.40;;
58528;SDS011;44322;52.968;5.816;2023-06-10T05:39:23;10.05;;;7.00;;
58528;SDS011;44322;52.968;5.816;2023-06-10T05:41:48;10.50;;;6.68;;
58528;SDS011;44322;52.968;5.816;2023-06-10T05:44:14;12.45;;;6.75;;
58528;SDS011;44322;52.968;5.816;2023-06-10T05:46:40;10.07;;;6.60;;
58528;SDS011;44322;52.968;5.816;2023-06-10T05:49:06;10.88;;;5.97;;
58528;SDS011;44322;52.968;5.816;2023-06-10T05:51:31;9.07;;;5.47;;
58528;SDS011;44322;52.968;5.816;2023-06-10T05:53:57;12.48;;;6.57;;
58528;SDS011;44322;52.968;5.816;2023-06-10T05:56:22;13.50;;;6.68;;
58528;SDS011;44322;52.968;5.816;2023-06-10T05:58:48;10.30;;;6.25;;
58528;SDS011;44322;52.968;5.816;2023-06-10T06:01:14;10.60;;;6.78;;
58528;SDS011;44322;52.968;5.816;2023-06-10T06:03:40;9.85;;;6.10;;
58528;SDS011;44322;52.968;5.816;2023-06-10T06:06:06;10.38;;;6.32;;
58528;SDS011;44322;52.968;5.816;2023-06-10T06:08:31;11.63;;;6.38;;
58528;SDS011;44322;52.968;5.816;2023-06-10T06:10:57;11.73;;;6.03;;
58528;SDS011;44322;52.968;5.816;2023-06-10T06:13:23;10.80;;;6.40;;
58528;SDS011;44322;52.968;5.816;2023-06-10T06:15:48;9.35;;;6.43;;
58528;SDS011;44322;52.968;5.816;2023-06-10T06:18:15;14.90;;;6.45;;
58528;SDS011;44322;52.968;5.816;2023-06-10T06:20:40;9.98;;;5.95;;
58528;SDS011;44322;52.968;5.816;2023-06-10T06:23:06;9.68;;;6.35;;
58528;SDS011;44322;52.968;5.816;2023-06-10T06:25:33;10.05;;;6.20;;
58528;SDS011;44322;52.968;5.816;2023-06-10T06:28:01;11.93;;;6.67;;
58528;SDS011;44322;52.968;5.816;2023-06-10T06:30:27;10.77;;;5.78;;
58528;SDS011;44322;52.968;5.816;2023-06-10T06:32:53;10.15;;;6.00;;
58528;SDS011;44322;52.968;5.816;2023-06-10T06:35:18;10.00;;;5.95;;
58528;SDS011;44322;52.968;5.816;2023-06-10T06:37:44;8.68;;;6.13;;
58528;SDS011;44322;52.968;5.816;2023-06-10T06:40:18;10.00;;;6.50;;
58528;SDS011;44322;52.968;5.816;2023-06-10T06:42:44;10.40;;;5.68;;
58528;SDS011;44322;52.968;5.816;2023-06-10T06:45:16;9.30;;;5.88;;
58528;SDS011;44322;52.968;5.816;2023-06-10T06:47:42;13.52;;;6.60;;
58528;SDS011;44322;52.968;5.816;2023-06-10T06:50:08;8.52;;;6.03;;
58528;SDS011;44322;52.968;5.816;2023-06-10T06:52:35;12.50;;;6.45;;
58528;SDS011;44322;52.968;5.816;2023-06-10T06:55:00;12.10;;;6.18;;
58528;SDS011;44322;52.968;5.816;2023-06-10T06:57:26;11.05;;;5.82;;
58528;SDS011;44322;52.968;5.816;2023-06-10T06:59:51;9.55;;;5.75;;
58528;SDS011;44322;52.968;5.816;2023-06-10T07:02:17;11.18;;;6.10;;
58528;SDS011;44322;52.968;5.816;2023-06-10T07:04:44;10.70;;;6.60;;
58528;SDS011;44322;52.968;5.816;2023-06-10T07:07:11;9.63;;;6.33;;
58528;SDS011;44322;52.968;5.816;2023-06-10T07:09:37;9.52;;;5.85;;
58528;SDS011;44322;52.968;5.816;2023-06-10T07:12:03;12.10;;;5.97;;
58528;SDS011;44322;52.968;5.816;2023-06-10T07:14:30;9.68;;;6.07;;
58528;SDS011;44322;52.968;5.816;2023-06-10T07:16:56;9.18;;;5.78;;
58528;SDS011;44322;52.968;5.816;2023-06-10T07:19:23;9.50;;;5.88;;
58528;SDS011;44322;52.968;5.816;2023-06-10T07:21:48;9.48;;;5.40;;
58528;SDS011;44322;52.968;5.816;2023-06-10T07:24:14;9.68;;;5.25;;
58528;SDS011;44322;52.968;5.816;2023-06-10T07:26:40;8.70;;;5.53;;
58528;SDS011;44322;52.968;5.816;2023-06-10T07:29:05;13.32;;;5.88;;
58528;SDS011;44322;52.968;5.816;2023-06-10T07:31:31;10.02;;;5.53;;
58528;SDS011;44322;52.968;5.816;2023-06-10T07:33:56;12.52;;;5.22;;
58528;SDS011;44322;52.968;5.816;2023-06-10T07:36:22;9.50;;;5.20;;
58528;SDS011;44322;52.968;5.816;2023-06-10T07:38:48;13.48;;;5.95;;
58528;SDS011;44322;52.968;5.816;2023-06-10T07:41:13;8.75;;;5.10;;
58528;SDS011;44322;52.968;5.816;2023-06-10T07:43:39;8.32;;;5.10;;
58528;SDS011;44322;52.968;5.816;2023-06-10T07:46:05;11.13;;;5.82;;
58528;SDS011;44322;52.968;5.816;2023-06-10T07:48:31;9.93;;;4.97;;
58528;SDS011;44322;52.968;5.816;2023-06-10T07:50:56;7.50;;;4.90;;
58528;SDS011;44322;52.968;5.816;2023-06-10T07:53:22;8.52;;;4.68;;
58528;SDS011;44322;52.968;5.816;2023-06-10T07:55:48;6.60;;;5.03;;
58528;SDS011;44322;52.968;5.816;2023-06-10T07:58:13;8.68;;;5.22;;
58528;SDS011;44322;52.968;5.816;2023-06-10T08:00:39;10.40;;;5.30;;
58528;SDS011;44322;52.968;5.816;2023-06-10T08:03:04;9.23;;;4.90;;
58528;SDS011;44322;52.968;5.816;2023-06-10T08:05:30;8.32;;;4.78;;
58528;SDS011;44322;52.968;5.816;2023-06-10T08:07:55;8.60;;;5.28;;
58528;SDS011;44322;52.968;5.816;2023-06-10T08:10:21;7.43;;;4.40;;
58528;SDS011;44322;52.968;5.816;2023-06-10T08:12:47;8.00;;;4.40;;
58528;SDS011;44322;52.968;5.816;2023-06-10T08:15:12;9.52;;;4.75;;
58528;SDS011;44322;52.968;5.816;2023-06-10T08:17:38;8.27;;;4.47;;
58528;SDS011;44322;52.968;5.816;2023-06-10T08:20:05;7.72;;;4.25;;
58528;SDS011;44322;52.968;5.816;2023-06-10T08:22:31;7.03;;;4.30;;
58528;SDS011;44322;52.968;5.816;2023-06-10T08:24:57;6.45;;;4.10;;
58528;SDS011;44322;52.968;5.816;2023-06-10T08:27:22;6.25;;;4.30;;
58528;SDS011;44322;52.968;5.816;2023-06-10T08:29:48;6.47;;;4.55;;
58528;SDS011;44322;52.968;5.816;2023-06-10T08:32:14;8.57;;;4.18;;
58528;SDS011;44322;52.968;5.816;2023-06-10T08:34:39;7.05;;;4.05;;
58528;SDS011;44322;52.968;5.816;2023-06-10T08:37:06;6.18;;;4.32;;
58528;SDS011;44322;52.968;5.816;2023-06-10T08:39:32;8.02;;;3.90;;
58528;SDS011;44322;52.968;5.816;2023-06-10T08:44:29;6.72;;;4.10;;
58528;SDS011;44322;52.968;5.816;2023-06-10T08:46:59;6.55;;;4.30;;
58528;SDS011;44322;52.968;5.816;2023-06-10T08:49:26;6.30;;;4.32;;
58528;SDS011;44322;52.968;5.816;2023-06-10T08:51:57;8.13;;;3.85;;
58528;SDS011;44322;52.968;5.816;2023-06-10T08:54:25;6.70;;;4.30;;
58528;SDS011;44322;52.968;5.816;2023-06-10T08:56:57;8.50;;;4.50;;
58528;SDS011;44322;52.968;5.816;2023-06-10T09:01:50;9.35;;;4.45;;
58528;SDS011;44322;52.968;5.816;2023-06-10T09:04:17;6.75;;;4.28;;
58528;SDS011;44322;52.968;5.816;2023-06-10T09:06:44;6.68;;;4.30;;
58528;SDS011;44322;52.968;5.816;2023-06-10T09:09:10;7.20;;;4.40;;
58528;SDS011;44322;52.968;5.816;2023-06-10T09:11:37;9.27;;;4.68;;
58528;SDS011;44322;52.968;5.816;2023-06-10T09:14:03;6.63;;;4.50;;
58528;SDS011;44322;52.968;5.816;2023-06-10T09:16:29;7.95;;;4.38;;
58528;SDS011;44322;52.968;5.816;2023-06-10T09:18:54;6.20;;;4.10;;
58528;SDS011;44322;52.968;5.816;2023-06-10T09:21:23;7.93;;;4.93;;
58528;SDS011;44322;52.968;5.816;2023-06-10T09:23:50;8.30;;;4.80;;
58528;SDS011;44322;52.968;5.816;2023-06-10T09:26:16;8.40;;;4.38;;
58528;SDS011;44322;52.968;5.816;2023-06-10T09:28:48;9.45;;;4.70;;
58528;SDS011;44322;52.968;5.816;2023-06-10T09:31:14;6.97;;;4.55;;
58528;SDS011;44322;52.968;5.816;2023-06-10T09:33:44;7.20;;;5.07;;
58528;SDS011;44322;52.968;5.816;2023-06-10T09:36:10;7.88;;;4.40;;
58528;SDS011;44322;52.968;5.816;2023-06-10T09:38:36;7.30;;;4.40;;
58528;SDS011;44322;52.968;5.816;2023-06-10T09:41:03;7.50;;;4.95;;
58528;SDS011;44322;52.968;5.816;2023-06-10T09:43:39;7.68;;;4.20;;
58528;SDS011;44322;52.968;5.816;2023-06-10T09:46:13;7.38;;;4.40;;
58528;SDS011;44322;52.968;5.816;2023-06-10T09:49:13;6.95;;;4.10;;
58528;SDS011;44322;52.968;5.816;2023-06-10T09:51:53;8.48;;;4.30;;
58528;SDS011;44322;52.968;5.816;2023-06-10T09:54:20;6.72;;;4.28;;
58528;SDS011;44322;52.968;5.816;2023-06-10T09:56:47;6.10;;;4.05;;
58528;SDS011;44322;52.968;5.816;2023-06-10T09:59:14;9.30;;;4.22;;
58528;SDS011;44322;52.968;5.816;2023-06-10T10:01:39;7.43;;;4.20;;
58528;SDS011;44322;52.968;5.816;2023-06-10T10:04:05;6.40;;;4.10;;
58528;SDS011;44322;52.968;5.816;2023-06-10T10:06:31;7.00;;;3.95;;
58528;SDS011;44322;52.968;5.816;2023-06-10T10:08:56;8.02;;;4.38;;
58528;SDS011;44322;52.968;5.816;2023-06-10T10:11:22;5.97;;;4.30;;
58528;SDS011;44322;52.968;5.816;2023-06-10T10:13:49;6.90;;;3.90;;
58528;SDS011;44322;52.968;5.816;2023-06-10T10:16:20;6.18;;;3.65;;
58528;SDS011;44322;52.968;5.816;2023-06-10T10:18:59;6.00;;;4.00;;
58528;SDS011;44322;52.968;5.816;2023-06-10T10:21:29;7.05;;;3.47;;
58528;SDS011;44322;52.968;5.816;2023-06-10T10:26:41;6.05;;;4.00;;
58528;SDS011;44322;52.968;5.816;2023-06-10T10:29:10;6.53;;;3.70;;
58528;SDS011;44322;52.968;5.816;2023-06-10T10:31:40;7.72;;;3.80;;
58528;SDS011;44322;52.968;5.816;2023-06-10T10:34:10;5.80;;;3.60;;
58528;SDS011;44322;52.968;5.816;2023-06-10T10:36:37;5.65;;;3.67;;
58528;SDS011;44322;52.968;5.816;2023-06-10T10:39:04;5.43;;;3.80;;
58528;SDS011;44322;52.968;5.816;2023-06-10T10:41:30;4.47;;;3.05;;
58528;SDS011;44322;52.968;5.816;2023-06-10T10:43:56;8.13;;;3.67;;
58528;SDS011;44322;52.968;5.816;2023-06-10T10:46:22;4.90;;;3.30;;
58528;SDS011;44322;52.968;5.816;2023-06-10T10:48:51;6.93;;;3.60;;
58528;SDS011;44322;52.968;5.816;2023-06-10T10:51:18;4.80;;;3.40;;
58528;SDS011;44322;52.968;5.816;2023-06-10T10:53:44;5.70;;;3.50;;
58528;SDS011;44322;52.968;5.816;2023-06-10T10:56:14;3.92;;;3.00;;
58528;SDS011;44322;52.968;5.816;2023-06-10T10:59:01;3.85;;;3.03;;
58528;SDS011;44322;52.968;5.816;2023-06-10T11:01:41;4.97;;;3.03;;
58528;SDS011;44322;52.968;5.816;2023-06-10T11:04:11;4.07;;;3.05;;
58528;SDS011;44322;52.968;5.816;2023-06-10T11:06:36;4.35;;;3.13;;
58528;SDS011;44322;52.968;5.816;2023-06-10T11:09:24;4.97;;;2.78;;
58528;SDS011;44322;52.968;5.816;2023-06-10T11:11:52;4.10;;;2.67;;
58528;SDS011;44322;52.968;5.816;2023-06-10T11:14:26;4.60;;;2.80;;
58528;SDS011;44322;52.968;5.816;2023-06-10T11:16:53;4.28;;;3.05;;
58528;SDS011;44322;52.968;5.816;2023-06-10T11:19:31;5.55;;;3.40;;
58528;SDS011;44322;52.968;5.816;2023-06-10T11:21:58;5.10;;;3.00;;
58528;SDS011;44322;52.968;5.816;2023-06-10T11:24:27;3.92;;;3.10;;
58528;SDS011;44322;52.968;5.816;2023-06-10T11:26:54;4.25;;;2.92;;
58528;SDS011;44322;52.968;5.816;2023-06-10T11:29:20;4.75;;;2.95;;
58528;SDS011;44322;52.968;5.816;2023-06-10T11:31:53;3.25;;;2.78;;
58528;SDS011;44322;52.968;5.816;2023-06-10T11:36:48;5.30;;;2.70;;
58528;SDS011;44322;52.968;5.816;2023-06-10T11:39:14;4.22;;;2.78;;
58528;SDS011;44322;52.968;5.816;2023-06-10T11:41:40;4.00;;;2.92;;
58528;SDS011;44322;52.968;5.816;2023-06-10T11:44:09;3.92;;;3.30;;
58528;SDS011;44322;52.968;5.816;2023-06-10T11:46:36;5.15;;;3.15;;
58528;SDS011;44322;52.968;5.816;2023-06-10T11:49:02;4.73;;;3.17;;
58528;SDS011;44322;52.968;5.816;2023-06-10T11:51:31;4.75;;;3.00;;
58528;SDS011;44322;52.968;5.816;2023-06-10T11:53:58;3.90;;;2.92;;
58528;SDS011;44322;52.968;5.816;2023-06-10T11:56:25;3.72;;;2.85;;
58528;SDS011;44322;52.968;5.816;2023-06-10T11:58:54;3.45;;;2.60;;
58528;SDS011;44322;52.968;5.816;2023-06-10T12:01:30;3.97;;;2.72;;
58528;SDS011;44322;52.968;5.816;2023-06-10T12:03:57;4.15;;;2.55;;
58528;SDS011;44322;52.968;5.816;2023-06-10T12:06:27;4.40;;;3.05;;
58528;SDS011;44322;52.968;5.816;2023-06-10T12:08:55;4.60;;;3.13;;
58528;SDS011;44322;52.968;5.816;2023-06-10T12:11:21;4.78;;;2.75;;
58528;SDS011;44322;52.968;5.816;2023-06-10T12:13:48;4.35;;;3.10;;
58528;SDS011;44322;52.968;5.816;2023-06-10T12:16:15;3.95;;;2.33;;
58528;SDS011;44322;52.968;5.816;2023-06-10T12:18:43;3.97;;;2.90;;
58528;SDS011;44322;52.968;5.816;2023-06-10T12:21:20;3.30;;;2.20;;
58528;SDS011;44322;52.968;5.816;2023-06-10T12:26:42;4.93;;;2.67;;
58528;SDS011;44322;52.968;5.816;2023-06-10T12:29:18;5.88;;;2.50;;
58528;SDS011;44322;52.968;5.816;2023-06-10T12:31:55;4.53;;;2.60;;
58528;SDS011;44322;52.968;5.816;2023-06-10T12:37:02;6.15;;;3.05;;
58528;SDS011;44322;52.968;5.816;2023-06-10T12:39:29;4.72;;;2.83;;
58528;SDS011;44322;52.968;5.816;2023-06-10T12:41:57;4.22;;;2.78;;
58528;SDS011;44322;52.968;5.816;2023-06-10T12:44:32;3.55;;;2.70;;
58528;SDS011;44322;52.968;5.816;2023-06-10T12:49:32;5.10;;;2.83;;
58528;SDS011;44322;52.968;5.816;2023-06-10T12:51:57;3.65;;;2.80;;
58528;SDS011;44322;52.968;5.816;2023-06-10T12:54:23;3.95;;;2.70;;
58528;SDS011;44322;52.968;5.816;2023-06-10T12:56:49;3.88;;;2.40;;
58528;SDS011;44322;52.968;5.816;2023-06-10T12:59:15;4.35;;;2.50;;
58528;SDS011;44322;52.968;5.816;2023-06-10T13:01:41;3.92;;;2.90;;
58528;SDS011;44322;52.968;5.816;2023-06-10T13:04:06;3.40;;;2.80;;
58528;SDS011;44322;52.968;5.816;2023-06-10T13:06:32;4.53;;;2.33;;
58528;SDS011;44322;52.968;5.816;2023-06-10T13:09:02;4.63;;;2.83;;
58528;SDS011;44322;52.968;5.816;2023-06-10T13:11:28;5.07;;;2.50;;
58528;SDS011;44322;52.968;5.816;2023-06-10T13:13:53;5.82;;;2.78;;
58528;SDS011;44322;52.968;5.816;2023-06-10T13:16:19;6.13;;;2.80;;
58528;SDS011;44322;52.968;5.816;2023-06-10T13:18:45;3.97;;;2.45;;
58528;SDS011;44322;52.968;5.816;2023-06-10T13:21:11;3.83;;;2.53;;
58528;SDS011;44322;52.968;5.816;2023-06-10T13:23:36;5.85;;;2.60;;
58528;SDS011;44322;52.968;5.816;2023-06-10T13:26:02;3.92;;;2.42;;
58528;SDS011;44322;52.968;5.816;2023-06-10T13:28:28;4.40;;;2.40;;
58528;SDS011;44322;52.968;5.816;2023-06-10T13:30:53;4.55;;;2.75;;
58528;SDS011;44322;52.968;5.816;2023-06-10T13:33:19;4.13;;;2.50;;
58528;SDS011;44322;52.968;5.816;2023-06-10T13:35:45;4.63;;;2.55;;
58528;SDS011;44322;52.968;5.816;2023-06-10T13:38:10;5.20;;;2.55;;
58528;SDS011;44322;52.968;5.816;2023-06-10T13:40:36;3.30;;;2.30;;
58528;SDS011;44322;52.968;5.816;2023-06-10T13:43:01;3.72;;;2.35;;
58528;SDS011;44322;52.968;5.816;2023-06-10T13:45:27;5.28;;;2.33;;
58528;SDS011;44322;52.968;5.816;2023-06-10T13:47:53;4.05;;;2.42;;
58528;SDS011;44322;52.968;5.816;2023-06-10T13:50:19;5.18;;;2.45;;
58528;SDS011;44322;52.968;5.816;2023-06-10T13:52:44;4.53;;;2.70;;
58528;SDS011;44322;52.968;5.816;2023-06-10T13:55:10;2.63;;;2.30;;
58528;SDS011;44322;52.968;5.816;2023-06-10T13:57:36;3.83;;;2.50;;
58528;SDS011;44322;52.968;5.816;2023-06-10T14:00:01;4.78;;;2.60;;
58528;SDS011;44322;52.968;5.816;2023-06-10T14:02:29;3.42;;;2.70;;
58528;SDS011;44322;52.968;5.816;2023-06-10T14:04:55;4.10;;;2.53;;
58528;SDS011;44322;52.968;5.816;2023-06-10T14:07:21;5.10;;;2.58;;
58528;SDS011;44322;52.968;5.816;2023-06-10T14:09:46;3.97;;;2.58;;
58528;SDS011;44322;52.968;5.816;2023-06-10T14:12:13;4.47;;;2.70;;
58528;SDS011;44322;52.968;5.816;2023-06-10T14:14:41;5.32;;;2.90;;
58528;SDS011;44322;52.968;5.816;2023-06-10T14:17:11;3.67;;;2.63;;
58528;SDS011;44322;52.968;5.816;2023-06-10T14:19:39;2.97;;;2.35;;
58528;SDS011;44322;52.968;5.816;2023-06-10T14:22:05;3.23;;;2.50;;
58528;SDS011;44322;52.968;5.816;2023-06-10T14:24:32;4.32;;;2.75;;
58528;SDS011;44322;52.968;5.816;2023-06-10T14:26:58;4.07;;;2.50;;
58528;SDS011;44322;52.968;5.816;2023-06-10T14:29:24;4.28;;;2.25;;
58528;SDS011;44322;52.968;5.816;2023-06-10T14:31:52;4.72;;;2.72;;
58528;SDS011;44322;52.968;5.816;2023-06-10T14:34:28;4.07;;;2.55;;
58528;SDS011;44322;52.968;5.816;2023-06-10T14:37:20;3.50;;;2.50;;
58528;SDS011;44322;52.968;5.816;2023-06-10T14:39:46;4.07;;;2.80;;
58528;SDS011;44322;52.968;5.816;2023-06-10T14:42:36;4.55;;;2.70;;
58528;SDS011;44322;52.968;5.816;2023-06-10T14:45:02;4.78;;;3.30;;
58528;SDS011;44322;52.968;5.816;2023-06-10T14:47:28;5.10;;;2.83;;
58528;SDS011;44322;52.968;5.816;2023-06-10T14:49:53;3.75;;;2.83;;
58528;SDS011;44322;52.968;5.816;2023-06-10T14:52:19;3.78;;;2.83;;
58528;SDS011;44322;52.968;5.816;2023-06-10T14:54:44;5.35;;;2.75;;
58528;SDS011;44322;52.968;5.816;2023-06-10T14:57:10;6.03;;;3.20;;
58528;SDS011;44322;52.968;5.816;2023-06-10T14:59:36;3.95;;;2.90;;
58528;SDS011;44322;52.968;5.816;2023-06-10T15:02:01;6.65;;;3.13;;
58528;SDS011;44322;52.968;5.816;2023-06-10T15:04:27;4.15;;;2.95;;
58528;SDS011;44322;52.968;5.816;2023-06-10T15:06:53;3.60;;;2.67;;
58528;SDS011;44322;52.968;5.816;2023-06-10T15:09:19;4.53;;;3.05;;
58528;SDS011;44322;52.968;5.816;2023-06-10T15:11:45;4.35;;;2.80;;
58528;SDS011;44322;52.968;5.816;2023-06-10T15:14:10;4.75;;;3.28;;
58528;SDS011;44322;52.968;5.816;2023-06-10T15:16:36;5.03;;;3.50;;